Time;durP1;ratioP1;P1;durP2;ratioP2;P2;SDS_P1;SDS_P2;PMS_P1;PMS_P2;Temp;Humidity;BMP_temperature;BMP_pressure;BME280_temperature;BME280_humidity;BME280_pressure;Samples;Min_cycle;Max_cycle;Signal;HPM_P1;HPM_P2
2022/03/14 00:02:02;;;;;;;12.60;10.63;;;8.30;94.20;;;;;;5016814;28;20041;-61
2022/03/14 00:04:29;;;;;;;16.38;10.50;;;8.20;94.70;;;;;;5040786;28;20327;-60
2022/03/14 00:06:55;;;;;;;14.40;9.57;;;8.20;94.70;;;;;;5048751;28;20117;-60
2022/03/14 00:09:21;;;;;;;13.45;9.65;;;8.20;95.60;;;;;;5040694;28;20041;-60
2022/03/14 00:11:46;;;;;;;10.88;8.27;;;8.20;96.10;;;;;;5044751;28;20300;-60
2022/03/14 00:14:12;;;;;;;14.80;9.43;;;8.30;96.80;;;;;;5043387;28;20043;-60
2022/03/14 00:16:41;;;;;;;11.10;8.30;;;8.30;96.30;;;;;;5045734;28;20052;-60
2022/03/14 00:19:07;;;;;;;15.38;8.60;;;8.30;96.70;;;;;;5039994;28;20067;-60
2022/03/14 00:21:35;;;;;;;13.35;8.63;;;8.40;96.60;;;;;;5045075;28;20037;-60
2022/03/14 00:24:01;;;;;;;14.23;10.88;;;8.50;96.80;;;;;;5042703;28;20107;-60
2022/03/14 00:26:27;;;;;;;14.05;9.25;;;8.50;96.90;;;;;;5045309;28;20040;-60
2022/03/14 00:28:53;;;;;;;11.82;9.07;;;8.60;96.90;;;;;;5043976;28;20067;-60
2022/03/14 00:31:20;;;;;;;12.88;9.48;;;8.70;96.70;;;;;;5045474;28;20056;-60
2022/03/14 00:33:45;;;;;;;12.10;8.48;;;8.80;96.50;;;;;;5043429;28;20055;-60
2022/03/14 00:36:11;;;;;;;11.75;7.60;;;9.00;96.50;;;;;;5055277;28;20052;-60
2022/03/14 00:38:40;;;;;;;10.90;7.25;;;9.10;96.70;;;;;;5037618;28;20087;-60
2022/03/14 00:41:08;;;;;;;9.88;7.70;;;9.30;97.00;;;;;;5055385;28;20102;-60
2022/03/14 00:43:34;;;;;;;10.68;8.25;;;9.30;96.70;;;;;;5055210;28;20076;-60
2022/03/14 00:46:00;;;;;;;8.25;7.40;;;9.50;96.80;;;;;;5037850;28;20079;-60
2022/03/14 00:48:26;;;;;;;10.38;7.40;;;9.50;97.20;;;;;;5055177;28;20539;-60
2022/03/14 00:50:53;;;;;;;8.50;6.63;;;9.50;96.90;;;;;;5054735;28;20054;-60
2022/03/14 00:53:19;;;;;;;10.45;6.75;;;9.50;97.60;;;;;;5033262;28;20056;-60
2022/03/14 00:55:44;;;;;;;7.47;5.75;;;9.50;97.70;;;;;;5035911;28;20044;-60
2022/03/14 00:58:10;;;;;;;10.65;7.63;;;9.50;97.90;;;;;;5035779;28;20131;-60
2022/03/14 01:00:36;;;;;;;9.15;7.30;;;9.50;98.20;;;;;;5033506;28;20576;-60
2022/03/14 01:03:03;;;;;;;9.00;6.47;;;9.60;98.40;;;;;;5032460;28;20127;-60
2022/03/14 01:05:28;;;;;;;8.32;6.60;;;9.60;98.50;;;;;;5035037;28;20056;-60
2022/03/14 01:07:54;;;;;;;7.88;6.63;;;9.70;98.80;;;;;;5017900;28;20037;-60
2022/03/14 01:10:20;;;;;;;10.40;6.82;;;9.70;98.90;;;;;;5035526;28;20156;-60
2022/03/14 01:12:46;;;;;;;8.63;6.22;;;9.70;99.10;;;;;;5018190;28;20491;-60
2022/03/14 01:15:12;;;;;;;13.38;7.30;;;9.80;99.10;;;;;;5018110;28;20087;-61
2022/03/14 01:17:38;;;;;;;11.60;6.80;;;9.80;99.20;;;;;;5019166;28;20049;-61
2022/03/14 01:20:05;;;;;;;9.43;6.28;;;9.90;99.30;;;;;;5055981;28;20068;-61
2022/03/14 01:22:31;;;;;;;9.25;6.45;;;9.90;99.50;;;;;;5056113;28;20139;-61
2022/03/14 01:24:56;;;;;;;11.15;7.55;;;9.90;99.30;;;;;;5055370;28;20074;-60
2022/03/14 01:27:22;;;;;;;9.93;6.43;;;10.00;99.30;;;;;;5055304;28;20047;-61
2022/03/14 01:29:48;;;;;;;11.13;6.70;;;10.00;99.40;;;;;;5055381;28;20044;-61
2022/03/14 01:32:16;;;;;;;8.57;6.22;;;10.00;99.30;;;;;;5043893;28;20560;-61
2022/03/14 01:34:42;;;;;;;9.80;5.65;;;9.90;99.70;;;;;;5055194;28;20517;-61
2022/03/14 01:37:08;;;;;;;8.35;5.88;;;10.00;99.90;;;;;;5055181;28;20048;-61
2022/03/14 01:39:35;;;;;;;9.57;6.88;;;10.00;99.90;;;;;;5054644;28;20516;-61
2022/03/14 01:42:00;;;;;;;10.10;7.20;;;10.00;99.90;;;;;;5054983;28;20055;-61
2022/03/14 01:44:26;;;;;;;6.53;5.93;;;10.00;99.90;;;;;;5037297;28;20074;-61
2022/03/14 01:46:53;;;;;;;8.20;5.93;;;10.00;99.90;;;;;;5055438;28;20048;-61
2022/03/14 01:49:19;;;;;;;9.10;6.63;;;10.00;99.90;;;;;;5054671;28;20484;-61
2022/03/14 01:51:45;;;;;;;8.30;5.85;;;10.00;99.90;;;;;;5036998;28;20041;-61
2022/03/14 01:54:11;;;;;;;7.40;5.30;;;10.00;99.90;;;;;;5037192;28;20132;-61
2022/03/14 01:56:39;;;;;;;6.55;5.57;;;10.00;99.90;;;;;;5054826;28;20040;-61
2022/03/14 01:59:06;;;;;;;6.90;5.78;;;10.10;99.90;;;;;;5028800;28;20055;-61
2022/03/14 02:01:34;;;;;;;7.22;6.05;;;10.10;99.90;;;;;;5036715;28;20044;-61
2022/03/14 02:04:00;;;;;;;6.85;5.05;;;10.10;99.90;;;;;;5036959;28;20471;-59
2022/03/14 02:06:29;;;;;;;7.50;6.35;;;10.10;99.90;;;;;;5031905;28;20563;-61
2022/03/14 02:08:55;;;;;;;8.10;5.80;;;10.10;99.90;;;;;;5049336;28;20059;-61
2022/03/14 02:11:21;;;;;;;6.70;4.65;;;10.20;99.90;;;;;;5055347;28;20040;-61
2022/03/14 02:13:47;;;;;;;8.60;6.05;;;10.20;99.90;;;;;;5036978;28;20059;-58
2022/03/14 02:16:13;;;;;;;7.07;5.00;;;10.20;99.90;;;;;;5055326;28;20121;-61
2022/03/14 02:18:38;;;;;;;10.68;5.80;;;10.20;99.90;;;;;;5054609;28;20480;-60
2022/03/14 02:21:06;;;;;;;6.20;4.57;;;10.20;99.90;;;;;;5053936;28;20048;-61
2022/03/14 02:23:32;;;;;;;6.65;5.82;;;10.20;99.90;;;;;;5055428;28;20094;-61
2022/03/14 02:25:57;;;;;;;4.18;3.55;;;10.30;99.90;;;;;;5037387;28;20228;-61
2022/03/14 02:28:23;;;;;;;6.43;5.25;;;10.20;99.90;;;;;;5054353;28;20450;-61
2022/03/14 02:30:50;;;;;;;8.90;6.32;;;10.30;99.90;;;;;;5055570;28;20044;-61
2022/03/14 02:33:16;;;;;;;7.03;4.38;;;10.20;99.90;;;;;;5024897;28;20128;-61
2022/03/14 02:35:42;;;;;;;8.98;5.28;;;10.30;99.90;;;;;;5017093;28;20887;-61
2022/03/14 02:38:16;;;;;;;6.13;5.00;;;10.30;99.90;;;;;;5034836;28;20134;-61
2022/03/14 02:40:46;;;;;;;9.40;5.75;;;10.30;99.90;;;;;;5034254;28;20045;-61
2022/03/14 02:43:15;;;;;;;5.30;4.28;;;10.20;99.90;;;;;;5017559;28;20055;-61
2022/03/14 02:45:47;;;;;;;5.82;4.75;;;10.20;99.90;;;;;;5017149;28;20045;-60
2022/03/14 02:48:13;;;;;;;5.00;4.50;;;10.20;99.90;;;;;;5034827;28;20074;-61
2022/03/14 02:50:42;;;;;;;6.80;5.10;;;10.20;99.90;;;;;;5035275;28;20112;-61
2022/03/14 02:53:13;;;;;;;5.55;4.47;;;10.20;99.90;;;;;;5035974;28;20662;-61
2022/03/14 02:55:39;;;;;;;5.88;4.60;;;10.20;99.90;;;;;;5034897;28;20045;-61
2022/03/14 02:58:05;;;;;;;5.97;4.20;;;10.20;99.90;;;;;;5027938;28;20099;-60
2022/03/14 03:00:30;;;;;;;8.43;5.18;;;10.20;99.90;;;;;;5034849;28;20895;-60
2022/03/14 03:02:56;;;;;;;5.93;5.32;;;10.20;99.90;;;;;;5034437;28;20072;-60
2022/03/14 03:05:22;;;;;;;7.25;5.13;;;10.20;99.90;;;;;;5034562;28;20064;-60
2022/03/14 03:07:49;;;;;;;7.32;5.20;;;10.20;99.90;;;;;;5034623;28;20124;-60
2022/03/14 03:10:23;;;;;;;6.13;4.63;;;10.20;99.90;;;;;;5033961;28;20447;-60
2022/03/14 03:12:49;;;;;;;5.90;4.47;;;10.20;99.90;;;;;;5029103;28;20052;-60
2022/03/14 03:15:15;;;;;;;5.32;4.30;;;10.30;99.90;;;;;;5035520;28;20094;-60
2022/03/14 03:17:41;;;;;;;5.50;4.20;;;10.20;99.90;;;;;;5037603;28;20145;-60
2022/03/14 03:20:08;;;;;;;5.00;3.55;;;10.30;99.90;;;;;;5038374;28;20059;-60
2022/03/14 03:22:34;;;;;;;6.32;4.15;;;10.30;99.90;;;;;;5038148;28;20484;-60
2022/03/14 03:25:00;;;;;;;3.78;3.25;;;10.30;99.90;;;;;;5037793;28;20055;-60
2022/03/14 03:27:25;;;;;;;7.22;4.93;;;10.30;99.90;;;;;;5030799;28;20045;-60
2022/03/14 03:29:51;;;;;;;5.70;5.10;;;10.20;99.90;;;;;;5037086;28;20044;-61
2022/03/14 03:32:16;;;;;;;7.45;5.15;;;10.00;99.90;;;;;;5019467;28;20056;-60
2022/03/14 03:34:42;;;;;;;6.70;5.07;;;9.80;99.90;;;;;;5040837;28;20590;-60
2022/03/14 03:37:08;;;;;;;6.78;5.20;;;9.50;99.90;;;;;;5054553;28;20036;-61
2022/03/14 03:39:33;;;;;;;8.07;4.95;;;9.40;99.90;;;;;;5057036;28;20922;-60
2022/03/14 03:41:59;;;;;;;7.40;6.00;;;9.40;99.90;;;;;;5057939;28;20147;-60
2022/03/14 03:44:24;;;;;;;7.13;4.88;;;9.40;99.90;;;;;;5035575;28;20785;-60
2022/03/14 03:46:50;;;;;;;6.50;4.80;;;9.30;99.90;;;;;;5044612;28;20040;-60
2022/03/14 03:49:16;;;;;;;7.97;5.25;;;9.30;99.90;;;;;;5055888;28;20131;-60
2022/03/14 03:51:41;;;;;;;6.88;4.70;;;9.40;99.90;;;;;;5055922;28;20048;-60
2022/03/14 03:54:07;;;;;;;4.85;4.20;;;9.30;99.90;;;;;;5039150;28;20052;-60
2022/03/14 03:56:34;;;;;;;6.70;4.10;;;9.40;99.90;;;;;;5056548;28;20121;-61
2022/03/14 03:59:00;;;;;;;8.23;5.47;;;9.40;99.90;;;;;;5055793;28;20090;-60
2022/03/14 04:01:26;;;;;;;7.72;4.68;;;9.50;99.90;;;;;;5056698;28;20143;-60
2022/03/14 04:03:54;;;;;;;7.15;5.32;;;9.40;99.90;;;;;;5056648;28;20062;-60
2022/03/14 04:06:30;;;;;;;6.35;4.70;;;9.40;99.90;;;;;;5056710;28;20607;-60
2022/03/14 04:08:57;;;;;;;5.65;5.10;;;9.30;99.90;;;;;;5056751;28;20129;-60
2022/03/14 04:11:23;;;;;;;5.68;3.95;;;9.30;99.90;;;;;;5039680;28;20056;-60
2022/03/14 04:13:51;;;;;;;5.35;4.30;;;9.30;99.90;;;;;;5056805;28;20126;-60
2022/03/14 04:16:18;;;;;;;4.13;3.58;;;9.40;99.90;;;;;;5057147;28;20117;-60
2022/03/14 04:18:45;;;;;;;6.43;3.95;;;9.40;99.90;;;;;;5057205;28;20845;-60
2022/03/14 04:21:12;;;;;;;4.80;3.80;;;9.50;99.90;;;;;;5055704;28;20044;-60
2022/03/14 04:23:38;;;;;;;6.00;4.45;;;9.50;99.90;;;;;;5057160;28;20041;-60
2022/03/14 04:26:04;;;;;;;4.15;3.20;;;9.60;99.90;;;;;;5055453;28;20041;-60
2022/03/14 04:28:29;;;;;;;4.40;3.45;;;9.60;99.90;;;;;;5056238;28;20132;-60
2022/03/14 04:30:55;;;;;;;4.95;3.80;;;9.60;99.90;;;;;;5056474;28;20044;-60
2022/03/14 04:33:21;;;;;;;5.72;4.03;;;9.60;99.90;;;;;;5056522;28;20986;-60
2022/03/14 04:35:46;;;;;;;6.15;4.53;;;9.60;99.90;;;;;;5056452;28;20851;-60
2022/03/14 04:38:13;;;;;;;5.95;4.57;;;9.60;99.90;;;;;;5056514;28;20040;-60
2022/03/14 04:40:39;;;;;;;5.97;4.40;;;9.50;99.90;;;;;;5056322;28;20040;-61
2022/03/14 04:43:08;;;;;;;5.18;4.20;;;9.40;99.90;;;;;;5056755;28;20870;-61
2022/03/14 04:45:36;;;;;;;6.20;4.93;;;9.40;99.90;;;;;;5038793;28;20055;-60
2022/03/14 04:48:03;;;;;;;5.60;4.30;;;9.40;99.90;;;;;;5056464;28;20105;-60
2022/03/14 04:50:29;;;;;;;6.05;3.78;;;9.40;99.90;;;;;;5056403;28;20049;-60
2022/03/14 04:52:55;;;;;;;4.90;3.97;;;9.40;99.90;;;;;;5050159;28;20783;-60
2022/03/14 04:55:20;;;;;;;4.85;4.38;;;9.40;99.90;;;;;;5044021;28;20697;-61
2022/03/14 04:57:46;;;;;;;4.72;3.33;;;9.40;99.90;;;;;;5048559;28;20044;-61
2022/03/14 05:00:12;;;;;;;5.18;3.30;;;9.40;99.90;;;;;;5024878;28;20135;-60
2022/03/14 05:02:38;;;;;;;5.20;3.47;;;9.50;99.90;;;;;;5042387;28;20111;-60
2022/03/14 05:05:04;;;;;;;3.85;3.08;;;9.50;99.90;;;;;;5019899;28;20051;-61
2022/03/14 05:07:30;;;;;;;3.85;2.50;;;9.60;99.90;;;;;;5025193;28;20052;-60
2022/03/14 05:09:55;;;;;;;3.85;3.17;;;9.60;99.90;;;;;;5026910;28;20045;-60
2022/03/14 05:12:21;;;;;;;4.00;3.08;;;9.70;99.90;;;;;;5038014;28;20153;-61
2022/03/14 05:14:50;;;;;;;3.00;2.60;;;9.80;99.90;;;;;;5036800;28;20103;-60
2022/03/14 05:17:17;;;;;;;2.55;2.35;;;9.80;99.90;;;;;;5036045;28;20053;-60
2022/03/14 05:19:43;;;;;;;3.63;2.65;;;9.90;99.90;;;;;;5036260;28;20057;-60
2022/03/14 05:22:08;;;;;;;6.18;2.88;;;9.90;99.90;;;;;;5018772;28;20044;-60
2022/03/14 05:24:34;;;;;;;3.92;3.22;;;9.90;99.90;;;;;;5035619;28;20057;-60
2022/03/14 05:26:59;;;;;;;2.67;2.10;;;9.90;99.90;;;;;;5035934;28;20052;-60
2022/03/14 05:29:25;;;;;;;3.35;2.95;;;9.90;99.90;;;;;;5035160;28;20870;-60
2022/03/14 05:31:50;;;;;;;3.55;2.42;;;9.90;99.90;;;;;;5035312;28;20080;-61
2022/03/14 05:34:16;;;;;;;3.22;2.53;;;9.90;99.90;;;;;;5036227;28;20063;-60
2022/03/14 05:36:42;;;;;;;3.05;2.75;;;10.00;99.90;;;;;;5035710;28;20048;-60
2022/03/14 05:39:08;;;;;;;3.38;2.58;;;10.00;99.90;;;;;;5035863;28;20058;-60
2022/03/14 05:41:34;;;;;;;3.10;2.35;;;10.00;99.90;;;;;;5036382;28;20493;-60
2022/03/14 05:43:59;;;;;;;3.35;2.75;;;10.00;99.90;;;;;;5035865;28;20485;-60
2022/03/14 05:46:25;;;;;;;3.53;2.60;;;10.00;99.90;;;;;;5017939;28;20087;-60
2022/03/14 05:48:50;;;;;;;2.33;2.15;;;10.00;99.90;;;;;;5035959;28;20049;-60
2022/03/14 05:51:16;;;;;;;3.70;2.63;;;10.00;99.90;;;;;;5017325;28;20931;-60
2022/03/14 05:53:41;;;;;;;3.22;2.42;;;10.10;99.90;;;;;;5035559;28;20088;-60
2022/03/14 05:56:07;;;;;;;4.53;2.42;;;10.10;99.90;;;;;;5021827;28;20053;-60
2022/03/14 05:58:33;;;;;;;4.07;3.67;;;10.10;99.90;;;;;;5039331;28;20123;-61
2022/03/14 06:00:58;;;;;;;3.38;2.65;;;10.00;99.90;;;;;;5023791;28;20053;-61
2022/03/14 06:03:24;;;;;;;3.42;2.63;;;10.00;99.90;;;;;;5020489;28;20109;-62
2022/03/14 06:05:50;;;;;;;4.30;2.92;;;10.10;99.90;;;;;;5041358;28;20067;-60
2022/03/14 06:08:17;;;;;;;4.00;2.97;;;10.00;99.90;;;;;;5041724;28;20159;-61
2022/03/14 06:10:44;;;;;;;3.22;2.45;;;10.00;99.90;;;;;;5044621;28;20050;-61
2022/03/14 06:13:09;;;;;;;2.83;2.55;;;10.00;99.90;;;;;;5044329;28;20222;-60
2022/03/14 06:15:35;;;;;;;3.85;2.83;;;10.00;99.90;;;;;;5048235;28;20048;-60
2022/03/14 06:18:00;;;;;;;4.47;3.65;;;10.00;99.90;;;;;;5035970;28;20128;-59
2022/03/14 06:20:26;;;;;;;3.55;3.25;;;10.00;99.90;;;;;;5034779;28;20627;-60
2022/03/14 06:22:51;;;;;;;3.60;2.70;;;9.90;99.90;;;;;;5032384;28;20547;-60
2022/03/14 06:25:18;;;;;;;5.05;3.28;;;9.90;99.90;;;;;;5016615;28;20110;-59
2022/03/14 06:27:43;;;;;;;4.07;3.25;;;9.90;99.90;;;;;;5040305;28;20127;-59
2022/03/14 06:30:09;;;;;;;3.90;3.45;;;9.90;99.90;;;;;;5043509;28;20049;-60
2022/03/14 06:32:37;;;;;;;3.33;2.30;;;9.90;99.90;;;;;;5017702;28;20044;-59
2022/03/14 06:35:04;;;;;;;3.58;3.28;;;9.80;99.90;;;;;;5036312;28;20053;-59
2022/03/14 06:37:30;;;;;;;4.57;3.60;;;9.80;99.90;;;;;;5012461;28;20516;-59
2022/03/14 06:39:56;;;;;;;4.78;2.65;;;9.80;99.90;;;;;;5035227;28;20048;-58
2022/03/14 06:42:22;;;;;;;5.03;3.22;;;9.80;99.90;;;;;;5037817;28;20359;-59
2022/03/14 06:44:50;;;;;;;3.00;2.70;;;9.80;99.90;;;;;;5043038;28;20068;-59
2022/03/14 06:47:21;;;;;;;4.28;3.33;;;9.80;99.90;;;;;;5044246;28;20102;-59
2022/03/14 06:49:46;;;;;;;3.97;3.40;;;9.80;99.90;;;;;;5041148;28;20133;-59
2022/03/14 06:52:13;;;;;;;3.95;3.53;;;9.80;99.90;;;;;;5038493;28;20044;-59
2022/03/14 06:54:39;;;;;;;3.47;3.08;;;9.80;99.90;;;;;;5048473;28;20884;-59
2022/03/14 06:57:08;;;;;;;4.45;3.53;;;9.70;99.90;;;;;;5036705;28;20040;-59
2022/03/14 06:59:35;;;;;;;3.78;3.13;;;9.80;99.90;;;;;;5044970;28;20079;-62
2022/03/14 07:02:02;;;;;;;6.13;4.07;;;9.70;99.90;;;;;;5041857;28;20049;-59
2022/03/14 07:04:28;;;;;;;5.07;4.38;;;9.70;99.90;;;;;;5036747;28;20083;-59
2022/03/14 07:06:54;;;;;;;6.07;3.83;;;9.70;99.90;;;;;;5049369;28;20139;-59
2022/03/14 07:09:19;;;;;;;3.88;2.92;;;9.70;99.90;;;;;;5045980;28;20048;-60
2022/03/14 07:11:45;;;;;;;4.32;3.90;;;9.70;99.90;;;;;;5039894;28;20276;-60
2022/03/14 07:14:11;;;;;;;5.35;3.58;;;9.60;99.90;;;;;;5044570;28;20079;-60
2022/03/14 07:16:36;;;;;;;4.93;3.58;;;9.70;99.90;;;;;;5043429;28;20124;-60
2022/03/14 07:19:02;;;;;;;6.18;3.97;;;9.70;99.90;;;;;;5042822;28;20049;-60
2022/03/14 07:21:32;;;;;;;3.83;3.40;;;9.70;99.90;;;;;;5020690;28;20468;-60
2022/03/14 07:23:58;;;;;;;4.30;3.38;;;9.70;99.90;;;;;;5022659;28;20144;-60
2022/03/14 07:26:24;;;;;;;5.97;3.40;;;9.70;99.90;;;;;;5041601;28;20719;-62
2022/03/14 07:28:50;;;;;;;4.25;3.80;;;9.70;99.90;;;;;;5044562;28;20036;-60
2022/03/14 07:31:20;;;;;;;4.70;3.97;;;9.70;99.90;;;;;;5040216;28;20036;-59
2022/03/14 07:33:47;;;;;;;6.07;4.00;;;9.70;99.90;;;;;;5038452;28;20241;-59
2022/03/14 07:36:13;;;;;;;7.85;5.13;;;9.70;99.90;;;;;;5035425;28;20145;-61
2022/03/14 07:38:41;;;;;;;7.43;4.22;;;9.80;99.90;;;;;;5035754;28;20052;-61
2022/03/14 07:41:08;;;;;;;4.68;4.05;;;9.80;99.90;;;;;;5034992;28;20045;-60
2022/03/14 07:43:34;;;;;;;5.35;4.13;;;9.80;99.90;;;;;;5034973;28;20048;-61
2022/03/14 07:46:01;;;;;;;5.88;4.47;;;9.80;99.90;;;;;;5035345;28;20048;-61
2022/03/14 07:48:27;;;;;;;4.97;4.47;;;9.80;99.90;;;;;;5035855;28;20085;-62
2022/03/14 07:50:53;;;;;;;4.55;3.95;;;9.70;99.90;;;;;;5047553;28;20207;-62
2022/03/14 07:53:18;;;;;;;7.13;4.53;;;9.70;99.90;;;;;;5054895;28;20549;-61
2022/03/14 07:55:44;;;;;;;5.38;4.05;;;9.70;99.90;;;;;;5054631;28;20173;-61
2022/03/14 07:58:09;;;;;;;5.30;4.57;;;9.70;99.90;;;;;;5054751;28;20044;-61
2022/03/14 08:00:35;;;;;;;7.50;4.70;;;9.70;99.90;;;;;;5041447;28;20122;-61
2022/03/14 08:03:01;;;;;;;8.68;4.25;;;9.70;99.90;;;;;;5046168;28;20151;-62
2022/03/14 08:05:27;;;;;;;5.55;4.13;;;9.70;99.90;;;;;;5034503;28;20049;-62
2022/03/14 08:07:54;;;;;;;4.63;4.00;;;9.80;99.90;;;;;;5034655;28;20123;-61
2022/03/14 08:10:21;;;;;;;5.35;4.20;;;9.80;99.90;;;;;;5017068;28;20084;-61
2022/03/14 08:12:55;;;;;;;5.07;4.25;;;9.80;99.90;;;;;;5034233;28;20057;-61
2022/03/14 08:15:31;;;;;;;5.13;4.45;;;9.80;99.90;;;;;;5034909;28;20136;-61
2022/03/14 08:18:02;;;;;;;6.70;4.45;;;9.80;99.90;;;;;;5034755;28;20178;-61
2022/03/14 08:20:28;;;;;;;6.05;3.63;;;9.80;99.90;;;;;;5034261;28;20057;-61
2022/03/14 08:22:56;;;;;;;5.18;4.05;;;9.90;99.90;;;;;;5034776;28;20397;-61
2022/03/14 08:25:22;;;;;;;5.63;5.10;;;9.90;99.90;;;;;;5019908;28;20052;-61
2022/03/14 08:27:48;;;;;;;7.43;4.65;;;9.90;99.90;;;;;;5042111;28;20128;-61
2022/03/14 08:30:15;;;;;;;6.80;4.85;;;9.90;99.90;;;;;;5034021;28;20045;-61
2022/03/14 08:32:41;;;;;;;6.10;4.50;;;9.90;99.90;;;;;;5033816;28;20419;-61
2022/03/14 08:35:08;;;;;;;6.90;4.93;;;10.00;99.90;;;;;;5034694;28;20382;-61
2022/03/14 08:37:39;;;;;;;7.45;4.78;;;10.00;99.90;;;;;;5036776;28;20083;-61
2022/03/14 08:40:07;;;;;;;5.07;4.60;;;10.00;99.90;;;;;;5045278;28;20059;-61
2022/03/14 08:42:34;;;;;;;5.05;4.32;;;9.50;99.90;;;;;;5055470;28;20048;-61
2022/03/14 08:44:59;;;;;;;5.97;4.43;;;10.10;99.90;;;;;;5044975;28;20079;-61
2022/03/14 08:47:25;;;;;;;5.75;4.78;;;10.10;99.90;;;;;;5034093;28;20140;-61
2022/03/14 08:49:51;;;;;;;6.95;4.80;;;10.10;99.90;;;;;;5046806;28;20132;-61
2022/03/14 08:52:16;;;;;;;5.30;4.80;;;10.10;99.90;;;;;;5052784;28;20052;-61
2022/03/14 08:54:42;;;;;;;6.22;4.93;;;10.10;99.90;;;;;;5053872;28;20040;-61
2022/03/14 08:57:09;;;;;;;5.78;5.00;;;10.10;99.90;;;;;;5054599;28;20087;-61
2022/03/14 08:59:35;;;;;;;5.45;4.70;;;10.10;99.90;;;;;;5053974;28;20052;-61
2022/03/14 09:02:00;;;;;;;5.78;4.57;;;10.10;99.90;;;;;;5053741;28;20044;-61
2022/03/14 09:04:26;;;;;;;7.32;4.90;;;10.10;99.90;;;;;;5053004;28;20048;-62
2022/03/14 09:06:51;;;;;;;7.82;6.40;;;10.10;99.90;;;;;;5036654;28;20041;-61
2022/03/14 09:09:18;;;;;;;6.68;5.88;;;10.10;99.90;;;;;;5054357;28;20059;-62
2022/03/14 09:11:44;;;;;;;8.70;6.40;;;10.20;99.90;;;;;;5054779;28;20051;-62
2022/03/14 09:14:10;;;;;;;6.03;5.32;;;10.20;99.90;;;;;;5035249;28;20049;-62
2022/03/14 09:16:35;;;;;;;6.97;5.00;;;10.20;99.90;;;;;;5054573;28;20063;-62
2022/03/14 09:19:02;;;;;;;8.02;5.88;;;10.20;99.90;;;;;;5055520;28;20055;-60
2022/03/14 09:21:27;;;;;;;7.70;6.25;;;10.20;99.90;;;;;;5030649;28;20052;-61
2022/03/14 09:23:53;;;;;;;8.15;6.00;;;10.20;99.90;;;;;;5045950;28;20075;-60
2022/03/14 09:26:19;;;;;;;7.30;5.43;;;10.20;99.90;;;;;;5055990;28;20051;-60
2022/03/14 09:28:45;;;;;;;7.55;6.07;;;10.20;99.90;;;;;;5055288;28;20083;-60
2022/03/14 09:31:14;;;;;;;5.65;4.75;;;10.30;99.90;;;;;;5053646;28;20048;-61
2022/03/14 09:33:40;;;;;;;8.45;6.07;;;10.30;99.90;;;;;;5053446;28;20067;-61
2022/03/14 09:36:06;;;;;;;8.40;5.85;;;10.30;99.90;;;;;;5053006;28;20052;-60
2022/03/14 09:38:32;;;;;;;9.38;6.00;;;10.30;99.90;;;;;;5052717;28;20056;-60
2022/03/14 09:41:03;;;;;;;6.22;5.22;;;10.40;99.90;;;;;;5053064;28;20053;-60
2022/03/14 09:43:38;;;;;;;8.68;7.55;;;10.40;99.90;;;;;;5051984;28;20129;-61
2022/03/14 09:46:07;;;;;;;6.80;6.03;;;10.40;99.90;;;;;;5052814;28;20052;-60
2022/03/14 09:48:36;;;;;;;8.05;6.97;;;10.50;99.90;;;;;;5052874;28;20083;-61
2022/03/14 09:51:03;;;;;;;9.35;6.75;;;10.50;99.90;;;;;;5049875;28;20114;-63
2022/03/14 09:53:29;;;;;;;8.77;6.97;;;10.50;99.90;;;;;;5041903;28;20049;-63
2022/03/14 09:55:56;;;;;;;8.55;6.75;;;10.50;99.90;;;;;;5046565;28;20040;-61
2022/03/14 09:58:21;;;;;;;9.73;7.60;;;10.50;99.90;;;;;;5051238;28;20052;-61
2022/03/14 10:00:48;;;;;;;10.52;6.68;;;10.50;99.90;;;;;;5051886;28;20048;-61
2022/03/14 10:03:16;;;;;;;8.93;6.88;;;10.50;99.90;;;;;;5052022;28;20098;-61
2022/03/14 10:05:44;;;;;;;9.18;7.03;;;10.50;99.90;;;;;;5051327;28;20906;-61
2022/03/14 10:08:10;;;;;;;9.68;6.57;;;10.50;99.90;;;;;;5052261;28;20052;-61
2022/03/14 10:10:37;;;;;;;9.32;7.28;;;10.50;99.90;;;;;;5051887;28;20609;-62
2022/03/14 10:13:05;;;;;;;11.52;8.55;;;10.40;99.90;;;;;;5051870;28;20583;-62
2022/03/14 10:15:35;;;;;;;12.02;9.05;;;10.40;99.90;;;;;;5051950;28;20076;-63
2022/03/14 10:18:18;;;;;;;12.45;9.30;;;10.30;99.90;;;;;;5051275;28;20121;-63
2022/03/14 10:21:08;;;;;;;15.93;11.85;;;10.30;99.90;;;;;;5052236;28;20045;-61
2022/03/14 10:23:43;;;;;;;13.90;9.80;;;10.10;99.90;;;;;;5028428;28;20756;-64
2022/03/14 10:26:16;;;;;;;11.95;8.77;;;10.10;99.90;;;;;;5021932;28;20177;-65
2022/03/14 10:28:42;;;;;;;15.02;9.10;;;10.10;99.90;;;;;;5031779;28;20130;-66
2022/03/14 10:31:07;;;;;;;9.00;6.10;;;10.00;99.90;;;;;;5031526;28;20857;-66
2022/03/14 10:33:34;;;;;;;11.43;5.72;;;9.90;99.90;;;;;;5031219;28;20638;-66
2022/03/14 10:36:00;;;;;;;10.65;5.85;;;9.90;99.90;;;;;;5031499;28;20080;-65
2022/03/14 10:38:27;;;;;;;10.32;6.32;;;9.90;99.90;;;;;;5032275;28;20412;-65
2022/03/14 10:40:56;;;;;;;9.45;5.85;;;9.80;99.90;;;;;;5015604;28;20995;-64
2022/03/14 10:43:37;;;;;;;13.25;6.63;;;9.90;99.90;;;;;;5033913;28;20055;-65
2022/03/14 10:46:07;;;;;;;11.48;5.97;;;9.90;99.90;;;;;;5033095;28;20128;-65
2022/03/14 10:48:43;;;;;;;10.43;6.05;;;9.80;99.90;;;;;;5034104;28;20621;-65
2022/03/14 10:51:11;;;;;;;12.25;7.13;;;9.90;99.90;;;;;;5033816;28;20099;-64
2022/03/14 10:53:45;;;;;;;15.07;7.97;;;9.90;99.90;;;;;;5033185;28;20092;-64
2022/03/14 10:56:12;;;;;;;11.85;7.40;;;9.90;99.90;;;;;;5050341;28;20057;-65
2022/03/14 10:58:39;;;;;;;13.30;8.18;;;10.00;99.90;;;;;;5053884;28;20056;-65
2022/03/14 11:01:09;;;;;;;13.63;8.50;;;10.00;99.90;;;;;;5053406;28;20045;-65
2022/03/14 11:03:39;;;;;;;13.20;8.68;;;10.10;99.90;;;;;;5054185;28;20147;-65
2022/03/14 11:06:10;;;;;;;15.35;9.48;;;10.10;99.90;;;;;;5054542;28;20037;-65
2022/03/14 11:08:40;;;;;;;13.15;7.25;;;10.20;99.90;;;;;;5053499;28;20405;-64
2022/03/14 11:11:16;;;;;;;14.15;8.68;;;10.30;99.90;;;;;;5054042;28;20056;-64
2022/03/14 11:13:42;;;;;;;16.95;9.15;;;10.30;99.90;;;;;;5054251;28;20048;-64
2022/03/14 11:16:17;;;;;;;11.40;8.93;;;10.40;99.90;;;;;;5053640;28;20091;-63
2022/03/14 11:18:44;;;;;;;18.00;9.15;;;10.40;99.90;;;;;;5054106;28;20052;-63
2022/03/14 11:21:12;;;;;;;17.13;9.60;;;10.50;99.90;;;;;;5053006;28;20791;-65
2022/03/14 11:23:39;;;;;;;12.88;9.23;;;10.60;99.90;;;;;;5050743;28;20097;-63
2022/03/14 11:26:08;;;;;;;12.02;7.97;;;10.60;99.90;;;;;;5044428;28;20045;-63
2022/03/14 11:28:35;;;;;;;14.70;9.48;;;10.70;99.90;;;;;;5032576;28;20056;-63
2022/03/14 11:31:01;;;;;;;13.95;8.50;;;10.70;99.90;;;;;;5033536;28;20067;-62
2022/03/14 11:33:30;;;;;;;16.25;8.10;;;10.70;99.90;;;;;;5033608;28;20091;-64
2022/03/14 11:35:59;;;;;;;13.02;7.95;;;10.60;99.90;;;;;;5033754;28;20057;-62
2022/03/14 11:38:26;;;;;;;15.02;8.48;;;10.70;99.90;;;;;;5037140;28;20049;-63
2022/03/14 11:40:52;;;;;;;14.13;8.80;;;10.70;99.90;;;;;;5037147;28;20835;-63
2022/03/14 11:43:18;;;;;;;14.15;7.63;;;10.70;99.90;;;;;;5036640;28;20152;-63
2022/03/14 11:45:46;;;;;;;21.80;8.60;;;10.70;99.90;;;;;;5037716;28;20123;-63
2022/03/14 11:48:11;;;;;;;14.55;7.97;;;10.70;99.90;;;;;;5037289;28;20132;-61
2022/03/14 11:50:44;;;;;;;11.18;8.38;;;10.70;99.90;;;;;;5036781;28;20041;-63
2022/03/14 11:53:21;;;;;;;14.35;9.07;;;10.70;99.90;;;;;;5037022;28;20795;-63
2022/03/14 11:56:07;;;;;;;14.35;7.55;;;10.70;99.90;;;;;;5049909;28;20040;-64
2022/03/14 11:59:00;;;;;;;13.52;7.85;;;10.60;99.90;;;;;;5056507;28;20146;-61
2022/03/14 12:01:27;;;;;;;17.52;6.93;;;10.60;99.90;;;;;;5055745;28;20152;-61
2022/03/14 12:03:59;;;;;;;10.80;6.60;;;10.60;99.90;;;;;;5056331;28;20133;-61
2022/03/14 12:06:46;;;;;;;14.77;7.93;;;10.70;99.90;;;;;;5038807;28;20401;-61
2022/03/14 12:09:33;;;;;;;10.00;6.18;;;10.80;99.90;;;;;;5056432;28;20049;-61
2022/03/14 12:12:14;;;;;;;10.13;7.32;;;11.10;99.90;;;;;;5041032;28;20063;-61
2022/03/14 12:14:47;;;;;;;9.88;7.47;;;10.70;99.90;;;;;;5056659;28;20083;-61
2022/03/14 12:17:13;;;;;;;14.98;7.10;;;10.70;99.90;;;;;;5056294;28;20048;-61
2022/03/14 12:19:42;;;;;;;11.48;7.50;;;10.70;99.90;;;;;;5055823;28;20052;-62
2022/03/14 12:22:12;;;;;;;15.20;8.60;;;10.60;99.90;;;;;;5056285;28;20051;-62
2022/03/14 12:24:42;;;;;;;16.85;8.50;;;10.60;99.90;;;;;;5055757;28;20159;-61
2022/03/14 12:27:35;;;;;;;16.08;8.93;;;10.60;99.90;;;;;;5056042;28;20048;-61
2022/03/14 12:30:07;;;;;;;15.05;9.43;;;10.50;99.90;;;;;;5055914;28;20159;-61
2022/03/14 12:32:39;;;;;;;19.60;9.10;;;10.50;99.90;;;;;;5055723;28;20061;-61
2022/03/14 12:35:16;;;;;;;15.95;9.75;;;10.60;99.90;;;;;;5056369;28;20048;-61
2022/03/14 12:37:50;;;;;;;14.20;8.68;;;10.70;99.90;;;;;;5056170;28;20122;-61
2022/03/14 12:40:21;;;;;;;15.73;9.60;;;10.70;99.90;;;;;;5055069;28;20048;-61
2022/03/14 12:42:52;;;;;;;14.93;10.25;;;10.80;99.90;;;;;;5055660;28;20043;-61
2022/03/14 12:45:22;;;;;;;17.02;9.85;;;10.80;99.90;;;;;;5055928;28;20067;-61
2022/03/14 12:48:02;;;;;;;12.63;9.32;;;10.90;99.90;;;;;;5053932;28;20045;-61
2022/03/14 12:50:42;;;;;;;12.82;10.02;;;11.00;99.90;;;;;;5055840;28;20056;-63